Time,TemperatureF,DewpointF,PressureIn,WindDirection,WindDirectionDegrees,WindSpeedMPH,WindSpeedGustMPH,Humidity,HourlyPrecipIn,Conditions,Clouds,dailyrainin,SolarRadiationWatts/m^2,SoftwareType,DateUTC
2014-01-17 00:02:00,34.0,31.0,-100.00,NE,39,1.0,8.0,90,0.00,,,0.01,0.000000,,2014-01-17 08:02:00,
2014-01-17 00:42:00,34.0,31.0,-100.00,North,8,2.0,9.0,90,0.00,,,0.01,0.000000,,2014-01-17 08:42:00,
2014-01-17 01:44:00,34.0,31.0,-100.00,SE,130,2.0,9.0,90,0.00,,,0.01,0.000000,,2014-01-17 09:44:00,
2014-01-17 01:53:00,34.0,31.0,-100.00,SE,130,2.0,9.0,90,0.00,,,0.01,0.000000,,2014-01-17 09:53:00,
2014-01-17 02:03:00,34.0,31.0,-100.00,SE,130,2.0,9.0,90,0.00,,,0.01,0.000000,,2014-01-17 10:03:00,
2014-01-17 02:43:00,35.0,32.0,-100.00,NW,306,1.0,8.0,90,-99.99,,,0.01,0.000000,,2014-01-17 10:43:00,
2014-01-17 02:52:00,35.0,32.0,-100.00,NW,306,1.0,8.0,90,-99.99,,,0.01,0.000000,,2014-01-17 10:52:00,
2014-01-17 03:02:00,35.0,32.0,-100.00,NW,306,1.0,8.0,90,-99.99,,,0.01,0.000000,,2014-01-17 11:02:00,
2014-01-17 03:42:00,34.0,31.0,-100.00,North,9,1.0,7.0,90,-99.99,,,0.01,0.000000,,2014-01-17 11:42:00,
2014-01-17 03:53:00,34.0,31.0,-100.00,North,9,1.0,7.0,90,-99.99,,,0.01,0.000000,,2014-01-17 11:53:00,
2014-01-17 04:02:00,34.0,31.0,-100.00,North,9,1.0,7.0,90,-99.99,,,0.01,0.000000,,2014-01-17 12:02:00,
2014-01-17 04:42:00,35.0,32.0,-100.00,NNW,340,2.0,10.0,90,-99.99,,,0.01,0.000000,,2014-01-17 12:42:00,
2014-01-17 04:52:00,35.0,32.0,-100.00,NNW,340,2.0,10.0,90,-99.99,,,0.01,0.000000,,2014-01-17 12:52:00,
2014-01-17 05:02:00,35.0,32.0,-100.00,NNW,340,2.0,10.0,90,-99.99,,,0.01,0.000000,,2014-01-17 13:02:00,
2014-01-17 05:42:00,33.0,30.0,-100.00,WSW,244,2.0,8.0,89,0.00,,,0.01,0.000000,,2014-01-17 13:42:00,
2014-01-17 05:52:00,33.0,30.0,-100.00,WSW,244,2.0,8.0,89,0.00,,,0.01,0.000000,,2014-01-17 13:52:00,
2014-01-17 06:01:00,33.0,30.0,-100.00,WSW,244,2.0,8.0,89,0.00,,,0.01,0.000000,,2014-01-17 14:01:00,
2014-01-17 06:42:00,35.0,32.0,-100.00,NNE,33,2.0,8.0,89,-99.99,,,0.01,0.000000,,2014-01-17 14:42:00,
2014-01-17 06:52:00,35.0,32.0,-100.00,NNE,33,2.0,8.0,89,-99.99,,,0.01,0.000000,,2014-01-17 14:52:00,
2014-01-17 07:02:00,35.0,32.0,-100.00,NNE,33,2.0,8.0,89,-99.99,,,0.01,0.000000,,2014-01-17 15:02:00,
2014-01-17 07:44:00,33.0,30.0,-100.00,ENE,60,2.0,8.0,89,-99.99,,,0.01,0.000000,,2014-01-17 15:44:00,
2014-01-17 08:42:00,32.0,29.0,-100.00,NE,45,2.0,9.0,89,-99.99,,,0.01,2.000000,,2014-01-17 16:42:00,
2014-01-17 08:53:00,32.0,29.0,-100.00,NE,45,2.0,9.0,89,-99.99,,,0.01,2.000000,,2014-01-17 16:53:00,
2014-01-17 09:02:00,32.0,29.0,-100.00,NE,45,2.0,9.0,89,-99.99,,,0.01,2.000000,,2014-01-17 17:02:00,
2014-01-17 09:42:00,32.0,29.0,-100.00,ESE,111,2.0,7.0,87,-99.99,,,-99.99,13.000000,,2014-01-17 17:42:00,
2014-01-17 09:53:00,32.0,29.0,-100.00,ESE,111,2.0,7.0,87,-99.99,,,-99.99,13.000000,,2014-01-17 17:53:00,
2014-01-17 10:02:00,32.0,29.0,-100.00,ESE,111,2.0,7.0,87,-99.99,,,-99.99,13.000000,,2014-01-17 18:02:00,
2014-01-17 10:42:00,35.0,31.0,-100.00,North,358,2.0,9.0,84,-99.99,,,-99.99,35.000000,,2014-01-17 18:42:00,
2014-01-17 10:52:00,35.0,31.0,-100.00,North,358,2.0,9.0,84,-99.99,,,-99.99,35.000000,,2014-01-17 18:52:00,
2014-01-17 11:01:00,35.0,31.0,-100.00,North,358,2.0,9.0,84,-99.99,,,-99.99,35.000000,,2014-01-17 19:01:00,
2014-01-17 11:42:00,39.0,33.0,-100.00,WNW,298,2.0,7.0,78,-99.99,,,0.01,84.000000,,2014-01-17 19:42:00,
2014-01-17 11:52:00,39.0,33.0,-100.00,WNW,298,2.0,7.0,78,-99.99,,,0.01,84.000000,,2014-01-17 19:52:00,
2014-01-17 12:01:00,39.0,33.0,-100.00,WNW,298,2.0,7.0,78,-99.99,,,0.01,84.000000,,2014-01-17 20:01:00,
2014-01-17 12:42:00,46.0,32.0,-100.00,South,179,1.0,7.0,59,-99.99,,,0.00,148.000000,,2014-01-17 20:42:00,
2014-01-17 13:43:00,58.0,28.0,-100.00,ENE,67,1.0,6.0,32,-99.99,,,0.00,343.000000,,2014-01-17 21:43:00,
2014-01-17 13:53:00,58.0,28.0,-100.00,ENE,67,1.0,6.0,32,-99.99,,,0.00,343.000000,,2014-01-17 21:53:00,
2014-01-17 14:03:00,58.0,28.0,-100.00,ENE,67,1.0,6.0,32,-99.99,,,0.00,343.000000,,2014-01-17 22:03:00,
2014-01-17 14:43:00,54.0,35.0,-100.00,NNE,21,1.0,5.0,49,0.00,,,0.00,196.000000,,2014-01-17 22:43:00,
2014-01-17 14:53:00,54.0,35.0,-100.00,NNE,21,1.0,5.0,49,0.00,,,0.00,196.000000,,2014-01-17 22:53:00,
2014-01-17 15:02:00,54.0,35.0,-100.00,NNE,21,1.0,5.0,49,0.00,,,0.00,196.000000,,2014-01-17 23:02:00,
2014-01-17 15:43:00,51.0,35.0,-100.00,WSW,256,1.0,4.0,54,0.00,,,0.00,65.000000,,2014-01-17 23:43:00,
2014-01-17 15:53:00,51.0,35.0,-100.00,WSW,256,1.0,4.0,54,0.00,,,0.00,65.000000,,2014-01-17 23:53:00,
2014-01-17 16:02:00,51.0,35.0,-100.00,WSW,256,1.0,4.0,54,0.00,,,0.00,65.000000,,2014-01-18 00:02:00,
2014-01-17 16:42:00,45.0,33.0,-100.00,NE,36,2.0,6.0,62,0.00,,,0.00,37.000000,,2014-01-18 00:42:00,
2014-01-17 16:52:00,45.0,33.0,-100.00,NE,36,2.0,6.0,62,0.00,,,0.00,37.000000,,2014-01-18 00:52:00,
2014-01-17 17:02:00,45.0,33.0,-100.00,NE,36,2.0,6.0,62,0.00,,,0.00,37.000000,,2014-01-18 01:02:00,
2014-01-17 17:42:00,40.0,32.0,-100.00,East,85,2.0,10.0,74,0.00,,,0.00,12.000000,,2014-01-18 01:42:00,
2014-01-17 17:52:00,40.0,32.0,-100.00,East,85,2.0,10.0,74,0.00,,,0.00,12.000000,,2014-01-18 01:52:00,
2014-01-17 18:01:00,40.0,32.0,-100.00,East,85,2.0,10.0,74,0.00,,,0.00,12.000000,,2014-01-18 02:01:00,
2014-01-17 18:42:00,36.0,29.0,-100.00,South,174,2.0,9.0,74,0.00,,,0.00,0.000000,,2014-01-18 02:42:00,
2014-01-17 18:52:00,36.0,29.0,-100.00,South,174,2.0,9.0,74,0.00,,,0.00,0.000000,,2014-01-18 02:52:00,
2014-01-17 19:01:00,36.0,29.0,-100.00,South,174,2.0,9.0,74,0.00,,,0.00,0.000000,,2014-01-18 03:01:00,
2014-01-17 19:43:00,34.0,27.0,-100.00,North,1,2.0,10.0,75,0.00,,,0.00,0.000000,,2014-01-18 03:43:00,
2014-01-17 19:53:00,34.0,27.0,-100.00,North,1,2.0,10.0,75,0.00,,,0.00,0.000000,,2014-01-18 03:53:00,
2014-01-17 20:03:00,34.0,27.0,-100.00,North,1,2.0,10.0,75,0.00,,,0.00,0.000000,,2014-01-18 04:03:00,
2014-01-17 20:42:00,33.0,27.0,-100.00,SW,220,2.0,10.0,79,0.00,,,0.00,0.000000,,2014-01-18 04:42:00,
2014-01-17 20:53:00,33.0,27.0,-100.00,SW,220,2.0,10.0,79,0.00,,,0.00,0.000000,,2014-01-18 04:53:00,
2014-01-17 21:02:00,33.0,27.0,-100.00,SW,220,2.0,10.0,79,0.00,,,0.00,0.000000,,2014-01-18 05:02:00,
2014-01-17 21:43:00,32.0,27.0,-100.00,NE,39,2.0,9.0,80,0.00,,,0.00,0.000000,,2014-01-18 05:43:00,
2014-01-17 21:52:00,32.0,27.0,-100.00,NE,39,2.0,9.0,80,0.00,,,0.00,0.000000,,2014-01-18 05:52:00,
2014-01-17 22:02:00,32.0,27.0,-100.00,NE,39,2.0,9.0,80,0.00,,,0.00,0.000000,,2014-01-18 06:02:00,
2014-01-17 22:42:00,33.0,28.0,-100.00,NNW,345,2.0,10.0,81,0.00,,,0.00,0.000000,,2014-01-18 06:42:00,
2014-01-17 22:52:00,33.0,28.0,-100.00,NNW,345,2.0,10.0,81,0.00,,,0.00,0.000000,,2014-01-18 06:52:00,
2014-01-17 23:02:00,33.0,28.0,-100.00,NNW,345,2.0,10.0,81,0.00,,,0.00,0.000000,,2014-01-18 07:02:00,
2014-01-17 23:42:00,32.0,28.0,-100.00,ENE,73,2.0,10.0,85,0.00,,,-99.99,0.000000,,2014-01-18 07:42:00,
2014-01-17 23:53:00,32.0,28.0,-100.00,ENE,73,2.0,10.0,85,0.00,,,-99.99,0.000000,,2014-01-18 07:53:00,